createdAt,value
2018-03-26T00:00:20.232Z,96610.14
2018-03-26T00:02:47.744Z,96612.19
2018-03-26T00:05:15.370Z,96617.13
2018-03-26T00:07:43.866Z,96611.25
2018-03-26T00:10:11.384Z,96610.00
2018-03-26T00:12:39.770Z,96609.63
2018-03-26T00:15:07.291Z,96611.05
2018-03-26T00:17:35.001Z,96613.60
2018-03-26T00:20:02.528Z,96613.97
2018-03-26T00:22:30.035Z,96610.19
2018-03-26T00:24:57.569Z,96610.98
2018-03-26T00:27:25.997Z,96615.75
2018-03-26T00:29:53.557Z,96620.95
2018-03-26T00:32:21.078Z,96610.95
2018-03-26T00:34:48.618Z,96620.28
2018-03-26T00:37:16.161Z,96617.30
2018-03-26T00:39:43.681Z,96617.73
2018-03-26T00:42:11.645Z,96619.41
2018-03-26T00:44:39.164Z,96623.11
2018-03-26T00:47:06.966Z,96622.92
2018-03-26T00:49:34.506Z,96619.48
2018-03-26T00:52:02.018Z,96627.52
2018-03-26T00:54:29.719Z,96627.31
2018-03-26T00:56:57.274Z,96629.38
2018-03-26T00:59:24.758Z,96629.60
2018-03-26T01:01:52.297Z,96626.73
2018-03-26T01:04:19.809Z,96633.52
2018-03-26T01:06:47.358Z,96635.15
2018-03-26T01:09:14.866Z,96637.77
2018-03-26T01:11:42.381Z,96640.61
2018-03-26T01:14:09.922Z,96634.63
2018-03-26T01:16:37.444Z,96633.42
2018-03-26T01:19:05.009Z,96629.39
2018-03-26T01:21:32.693Z,96629.81
2018-03-26T01:24:00.241Z,96637.66
2018-03-26T01:26:27.796Z,96631.98
2018-03-26T01:28:55.320Z,96631.12
2018-03-26T01:31:23.101Z,96633.91
2018-03-26T01:33:50.628Z,96629.50
2018-03-26T01:36:18.138Z,96627.91
2018-03-26T01:38:45.680Z,96633.59
2018-03-26T01:41:13.193Z,96635.48
2018-03-26T01:43:40.742Z,96633.16
2018-03-26T01:46:08.266Z,96643.78
2018-03-26T01:48:35.788Z,96646.42
2018-03-26T01:51:03.338Z,96646.50
2018-03-26T01:53:30.850Z,96650.44
2018-03-26T01:55:58.597Z,96651.56
2018-03-26T01:58:26.114Z,96655.11
2018-03-26T02:00:53.624Z,96652.92
2018-03-26T02:03:21.166Z,96656.88
2018-03-26T02:05:48.678Z,96657.48
2018-03-26T02:08:16.405Z,96659.67
2018-03-26T02:10:43.914Z,96654.36
2018-03-26T02:13:11.427Z,96659.39
2018-03-26T02:15:38.980Z,96657.27
2018-03-26T02:18:06.505Z,96654.01
2018-03-26T02:20:34.299Z,96642.26
2018-03-26T02:23:01.809Z,96643.60
2018-03-26T02:25:29.329Z,96647.48
2018-03-26T02:27:56.866Z,96642.20
2018-03-26T02:30:24.378Z,96646.33
2018-03-26T02:32:51.942Z,96657.55
2018-03-26T02:35:19.457Z,96661.26
2018-03-26T02:37:46.969Z,96659.66
2018-03-26T02:40:14.508Z,96670.44
2018-03-26T02:42:42.017Z,96666.69
2018-03-26T02:45:09.691Z,96666.98
2018-03-26T02:47:37.231Z,96662.72
2018-03-26T02:50:04.742Z,96663.44
2018-03-26T02:52:32.285Z,96665.84
2018-03-26T02:54:59.802Z,96669.28
2018-03-26T02:57:27.583Z,96668.10
2018-03-26T02:59:55.106Z,96673.17
2018-03-26T03:02:22.620Z,96666.16
2018-03-26T03:04:50.162Z,96667.63
2018-03-26T03:07:17.682Z,96664.42
2018-03-26T03:09:45.237Z,96663.36
2018-03-26T03:12:12.746Z,96664.02
2018-03-26T03:14:40.720Z,96670.16
2018-03-26T03:17:08.261Z,96670.30
2018-03-26T03:19:35.787Z,96675.08
2018-03-26T03:22:03.514Z,96672.02
2018-03-26T03:24:31.033Z,96678.05
2018-03-26T03:26:58.545Z,96682.28
2018-03-26T03:29:26.086Z,96680.67
2018-03-26T03:31:53.606Z,96682.86
2018-03-26T03:34:21.273Z,96689.22
2018-03-26T03:36:48.792Z,96693.95
2018-03-26T03:39:16.314Z,96694.16
2018-03-26T03:41:43.860Z,96696.28
2018-03-26T03:44:11.373Z,96694.59
2018-03-26T03:46:38.925Z,96696.89
2018-03-26T03:49:06.456Z,96691.00
2018-03-26T03:51:33.985Z,96693.36
2018-03-26T03:54:01.523Z,96695.23
2018-03-26T03:56:29.035Z,96691.83
2018-03-26T03:58:56.785Z,96691.63
2018-03-26T04:01:24.294Z,96690.51
2018-03-26T04:03:51.804Z,96695.13
2018-03-26T04:06:19.341Z,96701.13
2018-03-26T04:08:46.866Z,96705.77
2018-03-26T04:11:14.670Z,96701.67
2018-03-26T04:13:42.181Z,96717.25
2018-03-26T04:16:09.702Z,96710.28
2018-03-26T04:18:38.005Z,96715.81
2018-03-26T04:21:05.524Z,96709.02
2018-03-26T04:23:33.195Z,96713.56
2018-03-26T04:26:00.727Z,96715.21
2018-03-26T04:28:28.242Z,96723.61
2018-03-26T04:30:55.782Z,96722.62
2018-03-26T04:33:23.298Z,96723.04
2018-03-26T04:35:50.949Z,96721.25
2018-03-26T04:38:18.461Z,96731.17
2018-03-26T04:40:45.992Z,96728.08
2018-03-26T04:43:13.528Z,96729.22
2018-03-26T04:45:41.039Z,96740.61
2018-03-26T04:48:08.610Z,96735.09
2018-03-26T04:50:36.125Z,96740.11
2018-03-26T04:53:03.637Z,96741.02
2018-03-26T04:55:31.174Z,96741.09
2018-03-26T04:57:58.682Z,96740.95
2018-03-26T05:00:26.485Z,96746.19
2018-03-26T05:02:53.993Z,96744.42
2018-03-26T05:05:21.518Z,96748.22
2018-03-26T05:07:49.056Z,96750.11
2018-03-26T05:10:16.619Z,96751.70
2018-03-26T05:12:44.169Z,96755.22
2018-03-26T05:15:11.701Z,96755.19
2018-03-26T05:17:39.222Z,96762.02
2018-03-26T05:20:06.769Z,96759.45
2018-03-26T05:22:34.285Z,96755.77
2018-03-26T05:25:01.956Z,96761.09
2018-03-26T05:27:29.489Z,96763.42
2018-03-26T05:29:57.003Z,96767.59
2018-03-26T05:32:24.729Z,96768.03
2018-03-26T05:34:52.245Z,96769.16
2018-03-26T05:37:19.797Z,96776.81
2018-03-26T05:39:47.306Z,96777.82
2018-03-26T05:42:14.853Z,96775.20
2018-03-26T05:44:42.459Z,96773.83
2018-03-26T05:47:09.974Z,96779.15
2018-03-26T05:49:37.604Z,96780.89
2018-03-26T05:52:05.173Z,96786.75
2018-03-26T05:54:32.647Z,96787.39
2018-03-26T05:57:00.190Z,96786.03
2018-03-26T05:59:27.701Z,96792.73
2018-03-26T06:01:55.683Z,96788.63
2018-03-26T06:04:23.193Z,96791.46
2018-03-26T06:06:50.714Z,96797.88
2018-03-26T06:09:18.258Z,96798.98
2018-03-26T06:11:45.765Z,96805.43
2018-03-26T06:14:13.318Z,96809.37
2018-03-26T06:16:52.617Z,96809.77
2018-03-26T06:19:20.681Z,96807.50
2018-03-26T06:21:48.649Z,96809.38
2018-03-26T06:24:16.156Z,96817.47
2018-03-26T06:26:43.696Z,96815.98
2018-03-26T06:29:11.210Z,96822.58
2018-03-26T06:31:38.859Z,96819.22
2018-03-26T06:34:06.393Z,96822.47
2018-03-26T06:36:39.617Z,96822.22
2018-03-26T06:39:07.136Z,96829.91
2018-03-26T06:41:34.657Z,96837.90
2018-03-26T06:44:02.273Z,96840.74
2018-03-26T06:46:29.748Z,96839.90
2018-03-26T06:48:57.517Z,96845.24
2018-03-26T06:51:25.030Z,96850.71
2018-03-26T06:53:52.552Z,96853.97
2018-03-26T06:56:20.089Z,96856.88
2018-03-26T06:58:47.610Z,96858.89
2018-03-26T07:01:15.297Z,96858.27
2018-03-26T07:03:42.813Z,96867.41
2018-03-26T07:06:10.323Z,96869.67
2018-03-26T07:08:37.857Z,96874.97
2018-03-26T07:11:05.467Z,96871.08
2018-03-26T07:13:33.027Z,96871.78
2018-03-26T07:16:00.538Z,96874.19
2018-03-26T07:18:28.059Z,96873.49
2018-03-26T07:20:55.682Z,96879.75
2018-03-26T07:23:23.174Z,96873.52
2018-03-26T07:25:50.733Z,96875.33
2018-03-26T07:28:18.261Z,96883.97
2018-03-26T07:30:45.782Z,96881.23
2018-03-26T07:33:13.336Z,96885.16
2018-03-26T07:35:40.854Z,96879.38
2018-03-26T07:38:08.805Z,96883.75
2018-03-26T07:40:36.325Z,96886.66
2018-03-26T07:43:03.845Z,96879.36
2018-03-26T07:45:31.414Z,96887.08
2018-03-26T07:47:58.930Z,96892.78
2018-03-26T07:50:26.474Z,96892.97
2018-03-26T07:52:53.987Z,96896.98
2018-03-26T07:55:21.509Z,96903.25
2018-03-26T07:57:49.077Z,96903.12
2018-03-26T08:00:16.652Z,96900.89
2018-03-26T08:02:44.404Z,96913.44
2018-03-26T08:05:11.941Z,96913.47
2018-03-26T08:07:39.457Z,96911.56
2018-03-26T08:10:07.186Z,96918.92
2018-03-26T08:12:34.727Z,96916.22
2018-03-26T08:15:02.314Z,96926.70
2018-03-26T08:17:29.813Z,96930.91
2018-03-26T08:19:57.331Z,96924.42
2018-03-26T08:22:25.813Z,96931.01
2018-03-26T08:24:53.889Z,96931.56
2018-03-26T08:27:22.161Z,96936.27
2018-03-26T08:29:49.706Z,96939.54
2018-03-26T08:32:18.197Z,96951.32
2018-03-26T08:34:46.171Z,96948.40
2018-03-26T08:37:13.702Z,96952.64
2018-03-26T08:39:41.579Z,96953.08
2018-03-26T08:42:09.155Z,96955.97
2018-03-26T08:44:36.719Z,96955.22
2018-03-26T08:47:04.261Z,96961.23
2018-03-26T08:49:31.783Z,96955.17
2018-03-26T08:51:59.374Z,96955.92
2018-03-26T08:54:27.873Z,96961.42
2018-03-26T08:56:55.453Z,96962.16
2018-03-26T08:59:23.008Z,96965.23
2018-03-26T09:01:50.756Z,96960.13
2018-03-26T09:04:19.135Z,96965.42
2018-03-26T09:06:46.674Z,96969.33
2018-03-26T09:09:14.202Z,96969.66
2018-03-26T09:11:42.517Z,96971.58
2018-03-26T09:14:11.035Z,96974.31
2018-03-26T09:16:38.570Z,96975.91
2018-03-26T09:19:06.190Z,96968.53
2018-03-26T09:21:33.893Z,96975.72
2018-03-26T09:24:01.417Z,96982.44
2018-03-26T09:26:29.319Z,96980.65
2018-03-26T09:28:56.914Z,96981.98
2018-03-26T09:31:24.540Z,96986.15
2018-03-26T09:33:52.203Z,96984.03
2018-03-26T09:36:19.797Z,96992.27
2018-03-26T09:38:48.652Z,96989.02
2018-03-26T09:41:16.521Z,96988.42
2018-03-26T09:43:44.389Z,96986.77
2018-03-26T09:46:12.265Z,96986.72
2018-03-26T09:48:40.732Z,96987.61
2018-03-26T09:51:08.599Z,96987.42
2018-03-26T09:53:36.669Z,96998.38
2018-03-26T09:56:04.433Z,96994.98
2018-03-26T09:58:32.207Z,96995.47
2018-03-26T10:01:03.135Z,97001.03
2018-03-26T10:03:30.921Z,97004.46
2018-03-26T10:05:58.450Z,96995.95
2018-03-26T10:08:26.228Z,97003.36
2018-03-26T10:10:53.993Z,97005.95
2018-03-26T10:13:21.854Z,97016.66
2018-03-26T10:15:49.412Z,97016.25
2018-03-26T10:18:16.936Z,97009.61
2018-03-26T10:20:44.766Z,97015.70
2018-03-26T10:23:12.312Z,97009.64
2018-03-26T10:25:39.943Z,97016.13
2018-03-26T10:28:08.826Z,97018.97
2018-03-26T10:30:36.351Z,97022.88
2018-03-26T10:33:03.924Z,97023.70
2018-03-26T10:35:31.741Z,97027.17
2018-03-26T10:37:59.298Z,97028.70
2018-03-26T10:40:26.948Z,97024.59
2018-03-26T10:42:54.597Z,97025.45
2018-03-26T10:45:22.151Z,97032.58
2018-03-26T10:47:49.713Z,97036.96
2018-03-26T10:50:17.329Z,97040.58
2018-03-26T10:52:45.262Z,97043.69
2018-03-26T10:55:13.104Z,97040.50
2018-03-26T10:57:40.672Z,97039.17
2018-03-26T11:00:08.198Z,97034.02
2018-03-26T11:02:36.115Z,97035.30
2018-03-26T11:05:03.734Z,97039.17
2018-03-26T11:07:31.625Z,97040.05
2018-03-26T11:09:59.302Z,97043.70
2018-03-26T11:12:27.255Z,97038.64
2018-03-26T11:14:55.142Z,97041.13
2018-03-26T11:17:23.209Z,97045.48
2018-03-26T11:19:51.179Z,97050.23
2018-03-26T11:22:19.319Z,97045.63
2018-03-26T11:24:47.629Z,97044.89
2018-03-26T11:27:23.055Z,97043.41
2018-03-26T11:29:51.349Z,97042.48
2018-03-26T11:32:19.254Z,97042.93
2018-03-26T11:34:46.832Z,97041.55
2018-03-26T11:37:14.642Z,97035.81
2018-03-26T11:39:42.562Z,97038.16
2018-03-26T11:42:10.892Z,97043.62
2018-03-26T11:44:38.853Z,97045.56
2018-03-26T11:47:07.234Z,97045.75
2018-03-26T11:49:35.213Z,97033.81
2018-03-26T11:52:03.479Z,97033.34
2018-03-26T11:54:32.338Z,97034.66
2018-03-26T11:57:01.059Z,97033.23
2018-03-26T11:59:29.154Z,97030.77
2018-03-26T12:01:57.731Z,97025.97
2018-03-26T12:04:25.664Z,97029.12
2018-03-26T12:06:53.947Z,97039.22
2018-03-26T12:09:21.820Z,97036.98
2018-03-26T12:11:49.882Z,97027.39
2018-03-26T12:14:17.864Z,97030.06
2018-03-26T12:16:45.833Z,97032.26
2018-03-26T12:19:14.154Z,97033.91
2018-03-26T12:21:42.077Z,97029.00
2018-03-26T12:24:21.922Z,97035.05
2018-03-26T12:26:50.016Z,97039.11
2018-03-26T12:29:30.229Z,97043.78
2018-03-26T12:31:58.262Z,97038.68
2018-03-26T12:34:38.038Z,97038.78
2018-03-26T12:37:06.752Z,97042.75
2018-03-26T12:39:35.724Z,97041.25
2018-03-26T12:42:04.780Z,97049.33
2018-03-26T12:44:45.406Z,97049.01
2018-03-26T12:47:13.792Z,97045.47
2018-03-26T12:49:41.714Z,97047.56
2018-03-26T12:52:23.342Z,97050.98
2018-03-26T12:54:51.104Z,97051.69
2018-03-26T12:57:31.005Z,97048.91
2018-03-26T12:59:58.924Z,97045.45
2018-03-26T13:02:28.292Z,97060.58
2018-03-26T13:04:57.115Z,97053.94
2018-03-26T13:07:24.994Z,97057.99
2018-03-26T13:09:53.365Z,97054.33
2018-03-26T13:12:21.838Z,97056.17
2018-03-26T13:14:50.286Z,97063.09
2018-03-26T13:17:18.185Z,97072.22
2018-03-26T13:19:45.934Z,97065.59
2018-03-26T13:22:15.388Z,97070.52
2018-03-26T13:24:43.760Z,97071.98
2018-03-26T13:27:11.599Z,97071.36
2018-03-26T13:29:39.225Z,97080.14
2018-03-26T13:32:07.175Z,97084.76
2018-03-26T13:34:35.814Z,97083.27
2018-03-26T13:37:03.781Z,97079.00
2018-03-26T13:39:31.544Z,97081.12
2018-03-26T13:41:59.540Z,97080.86
2018-03-26T13:44:27.482Z,97086.10
2018-03-26T13:46:55.555Z,97081.91
2018-03-26T13:49:23.422Z,97092.79
2018-03-26T13:51:51.287Z,97090.28
2018-03-26T13:54:19.665Z,97091.95
2018-03-26T13:56:48.863Z,97095.79
2018-03-26T13:59:17.036Z,97098.25
2018-03-26T14:01:44.659Z,97098.81
2018-03-26T14:04:12.566Z,97103.05
2018-03-26T14:06:41.005Z,97102.72
2018-03-26T14:09:20.791Z,97104.44
2018-03-26T14:12:00.272Z,97105.88
2018-03-26T14:14:39.565Z,97110.81
2018-03-26T14:17:19.617Z,97113.06
2018-03-26T14:19:47.307Z,97115.94
2018-03-26T14:22:15.131Z,97109.35
2018-03-26T14:24:43.830Z,97109.50
2018-03-26T14:27:11.609Z,97114.73
2018-03-26T14:29:39.720Z,97109.54
2018-03-26T14:32:07.431Z,97110.95
2018-03-26T14:34:35.606Z,97104.16
2018-03-26T14:37:03.258Z,97108.95
2018-03-26T14:39:31.234Z,97105.55
2018-03-26T14:41:59.203Z,97099.98
2018-03-26T14:44:27.895Z,97104.90
2018-03-26T14:46:57.003Z,97107.00
2018-03-26T14:49:25.057Z,97103.16
2018-03-26T14:51:53.038Z,97110.52
2018-03-26T14:54:20.999Z,97114.77
2018-03-26T14:56:49.085Z,97113.33
2018-03-26T14:59:17.444Z,97108.98
2018-03-26T15:01:45.412Z,97111.48
2018-03-26T15:04:13.586Z,97110.09
2018-03-26T15:06:41.458Z,97108.92
2018-03-26T15:09:09.343Z,97107.88
2018-03-26T15:11:37.596Z,97112.81
2018-03-26T15:14:05.564Z,97110.13
2018-03-26T15:16:33.637Z,97113.97
2018-03-26T15:19:02.218Z,97119.58
2018-03-26T15:21:30.047Z,97120.45
2018-03-26T15:23:57.910Z,97122.24
2018-03-26T15:26:25.614Z,97125.73
2018-03-26T15:28:53.583Z,97118.92
2018-03-26T15:31:21.655Z,97122.02
2018-03-26T15:33:50.344Z,97123.06
2018-03-26T15:36:18.898Z,97121.61
2018-03-26T15:38:46.804Z,97129.97
2018-03-26T15:41:15.206Z,97123.30
2018-03-26T15:43:43.163Z,97126.41
2018-03-26T15:46:11.823Z,97130.20
2018-03-26T15:48:40.202Z,97131.10
2018-03-26T15:51:08.723Z,97129.89
2018-03-26T15:53:37.575Z,97131.02
2018-03-26T15:56:05.468Z,97128.54
2018-03-26T15:58:33.327Z,97129.91
2018-03-26T16:01:01.462Z,97127.05
2018-03-26T16:03:30.782Z,97125.11
2018-03-26T16:05:58.658Z,97132.80
2018-03-26T16:08:26.590Z,97132.81
2018-03-26T16:10:54.687Z,97135.34
2018-03-26T16:13:22.963Z,97132.83
2018-03-26T16:15:50.829Z,97134.40
2018-03-26T16:18:19.002Z,97144.97
2018-03-26T16:20:47.289Z,97142.37
2018-03-26T16:23:15.250Z,97144.72
2018-03-26T16:25:43.652Z,97149.17
2018-03-26T16:28:11.411Z,97151.94
2018-03-26T16:30:39.155Z,97151.27
2018-03-26T16:33:07.022Z,97156.62
2018-03-26T16:35:34.952Z,97158.56
2018-03-26T16:38:03.685Z,97158.43
2018-03-26T16:40:31.544Z,97150.61
2018-03-26T16:43:07.805Z,97157.41
2018-03-26T16:45:35.674Z,97160.92
2018-03-26T16:48:03.325Z,97155.41
2018-03-26T16:50:31.815Z,97153.26
2018-03-26T16:52:59.717Z,97157.64
2018-03-26T16:55:27.856Z,97156.75
2018-03-26T16:57:55.637Z,97154.42
2018-03-26T17:00:23.998Z,97153.88
2018-03-26T17:02:51.966Z,97159.00
2018-03-26T17:05:19.781Z,97165.38
2018-03-26T17:07:47.878Z,97166.03
2018-03-26T17:10:16.361Z,97168.86
2018-03-26T17:12:44.150Z,97173.28
2018-03-26T17:15:11.917Z,97176.80
2018-03-26T17:17:39.986Z,97174.45
2018-03-26T17:20:10.201Z,97185.53
2018-03-26T17:22:38.892Z,97178.66
2018-03-26T17:25:06.964Z,97182.70
2018-03-26T17:27:34.831Z,97175.80
2018-03-26T17:30:03.209Z,97184.23
2018-03-26T17:32:31.077Z,97178.44
2018-03-26T17:34:58.841Z,97185.09
2018-03-26T17:37:26.697Z,97178.87
2018-03-26T17:39:54.573Z,97183.89
2018-03-26T17:42:22.337Z,97179.34
2018-03-26T17:44:50.203Z,97181.47
2018-03-26T17:47:18.290Z,97183.41
2018-03-26T17:49:46.139Z,97186.55
2018-03-26T17:52:14.520Z,97189.48
2018-03-26T17:54:42.718Z,97195.59
2018-03-26T17:57:11.484Z,97198.55
2018-03-26T17:59:40.168Z,97196.04
2018-03-26T18:02:08.651Z,97196.56
2018-03-26T18:04:37.540Z,97198.33
2018-03-26T18:07:05.919Z,97205.60
2018-03-26T18:09:35.171Z,97201.23
2018-03-26T18:12:03.086Z,97200.45
2018-03-26T18:14:30.951Z,97203.08
2018-03-26T18:16:58.840Z,97204.01
2018-03-26T18:19:26.684Z,97209.45
2018-03-26T18:21:54.754Z,97209.66
2018-03-26T18:24:22.622Z,97215.05
2018-03-26T18:26:50.459Z,97217.14
2018-03-26T18:29:18.867Z,97217.67
2018-03-26T18:31:47.655Z,97213.70
2018-03-26T18:34:15.521Z,97208.92
2018-03-26T18:36:44.104Z,97218.83
2018-03-26T18:39:12.382Z,97223.20
2018-03-26T18:41:40.557Z,97221.51
2018-03-26T18:44:08.422Z,97220.64
2018-03-26T18:46:36.714Z,97225.16
2018-03-26T18:49:04.669Z,97230.55
2018-03-26T18:51:33.124Z,97233.91
2018-03-26T18:54:01.721Z,97235.28
2018-03-26T18:56:29.699Z,97229.08
2018-03-26T18:58:57.465Z,97232.20
2018-03-26T19:01:26.273Z,97232.73
2018-03-26T19:03:54.324Z,97235.31
2018-03-26T19:06:22.252Z,97237.33
2018-03-26T19:08:50.364Z,97235.55
2018-03-26T19:11:18.288Z,97241.34
2018-03-26T19:13:46.198Z,97243.50
2018-03-26T19:16:14.270Z,97239.60
2018-03-26T19:18:42.140Z,97243.05
2018-03-26T19:21:10.211Z,97247.27
2018-03-26T19:23:38.195Z,97248.55
2018-03-26T19:26:06.251Z,97247.44
2018-03-26T19:28:34.116Z,97246.64
2018-03-26T19:31:02.598Z,97252.66
2018-03-26T19:33:30.464Z,97254.08
2018-03-26T19:35:59.250Z,97258.25
2018-03-26T19:38:28.040Z,97255.95
2018-03-26T19:40:56.826Z,97259.39
2018-03-26T19:43:25.206Z,97264.73
2018-03-26T19:45:53.421Z,97264.94
2018-03-26T19:48:21.655Z,97259.22
2018-03-26T19:50:49.523Z,97262.30
2018-03-26T19:53:17.388Z,97268.04
2018-03-26T19:55:45.357Z,97270.52
2018-03-26T19:58:13.270Z,97267.99
2018-03-26T20:00:42.012Z,97266.34
2018-03-26T20:03:09.981Z,97264.95
2018-03-26T20:05:40.613Z,97273.83
2018-03-26T20:08:08.600Z,97268.03
2018-03-26T20:10:36.758Z,97269.97
2018-03-26T20:13:05.235Z,97279.21
2018-03-26T20:15:34.129Z,97275.00
2018-03-26T20:18:01.992Z,97287.98
2018-03-26T20:20:30.269Z,97277.53
2018-03-26T20:22:58.238Z,97281.84
2018-03-26T20:25:27.389Z,97278.79
2018-03-26T20:27:55.909Z,97280.14
2018-03-26T20:30:25.012Z,97280.65
2018-03-26T20:32:52.981Z,97283.73
2018-03-26T20:35:20.852Z,97287.73
2018-03-26T20:37:49.021Z,97290.57
2018-03-26T20:40:17.092Z,97289.50
2018-03-26T20:42:44.930Z,97287.70
2018-03-26T20:45:13.851Z,97286.17
2018-03-26T20:47:41.694Z,97287.67
2018-03-26T20:50:09.787Z,97283.84
2018-03-26T20:52:37.655Z,97288.16
2018-03-26T20:55:05.641Z,97287.92
2018-03-26T20:57:33.432Z,97287.30
2018-03-26T21:00:01.256Z,97290.00
2018-03-26T21:02:29.426Z,97283.97
2018-03-26T21:04:57.187Z,97287.59
2018-03-26T21:07:25.365Z,97287.31
2018-03-26T21:09:53.334Z,97289.78
2018-03-26T21:12:22.082Z,97284.93
2018-03-26T21:14:50.194Z,97286.09
2018-03-26T21:17:18.061Z,97286.31
2018-03-26T21:19:45.926Z,97281.44
2018-03-26T21:22:13.848Z,97288.45
2018-03-26T21:24:41.761Z,97283.73
2018-03-26T21:27:09.887Z,97288.19
2018-03-26T21:29:38.419Z,97289.38
2018-03-26T21:32:06.396Z,97286.63
2018-03-26T21:34:34.286Z,97284.36
2018-03-26T21:37:02.242Z,97285.17
2018-03-26T21:39:30.601Z,97287.80
2018-03-26T21:41:58.382Z,97287.20
2018-03-26T21:44:26.128Z,97290.17
2018-03-26T21:46:54.008Z,97291.73
2018-03-26T21:49:21.860Z,97291.76
2018-03-26T21:51:50.649Z,97293.20
2018-03-26T21:54:18.416Z,97294.37
2018-03-26T21:56:46.381Z,97299.20
2018-03-26T21:59:14.356Z,97299.11
2018-03-26T22:01:42.120Z,97294.62
2018-03-26T22:04:10.596Z,97292.50
2018-03-26T22:06:38.463Z,97294.87
2018-03-26T22:09:06.329Z,97289.27
2018-03-26T22:11:33.964Z,97288.83
2018-03-26T22:14:01.602Z,97277.56
2018-03-26T22:16:29.181Z,97274.84
2018-03-26T22:18:57.367Z,97284.52
2018-03-26T22:21:25.132Z,97286.95
2018-03-26T22:23:53.693Z,97284.06
2018-03-26T22:26:21.497Z,97279.30
2018-03-26T22:28:49.237Z,97275.02
2018-03-26T22:31:16.809Z,97279.67
2018-03-26T22:33:44.377Z,97285.30
2018-03-26T22:36:11.920Z,97287.80
2018-03-26T22:38:40.234Z,97281.16
2018-03-26T22:41:08.074Z,97277.98
2018-03-26T22:43:35.616Z,97275.67
2018-03-26T22:46:03.138Z,97283.25
2018-03-26T22:48:30.693Z,97273.59
2018-03-26T22:50:58.325Z,97283.39
2018-03-26T22:53:26.186Z,97278.16
2018-03-26T22:55:53.755Z,97277.80
2018-03-26T22:58:21.305Z,97272.67
2018-03-26T23:00:48.849Z,97270.51
2018-03-26T23:03:16.379Z,97278.52
2018-03-26T23:05:44.290Z,97278.86
2018-03-26T23:08:11.825Z,97277.35
2018-03-26T23:10:39.338Z,97281.25
2018-03-26T23:13:07.046Z,97272.13
2018-03-26T23:15:34.569Z,97271.97
2018-03-26T23:18:02.149Z,97268.04
2018-03-26T23:20:29.742Z,97269.03
2018-03-26T23:22:57.270Z,97269.30
2018-03-26T23:25:24.787Z,97263.44
2018-03-26T23:27:52.338Z,97263.91
2018-03-26T23:30:19.857Z,97267.08
2018-03-26T23:32:47.365Z,97265.94
2018-03-26T23:35:14.939Z,97266.94
2018-03-26T23:37:42.465Z,97255.77
2018-03-26T23:40:09.981Z,97262.57
2018-03-26T23:42:37.678Z,97256.79
2018-03-26T23:45:05.199Z,97255.72
2018-03-26T23:47:32.713Z,97253.48
2018-03-26T23:50:00.433Z,97257.95
2018-03-26T23:52:28.018Z,97254.33
2018-03-26T23:54:55.574Z,97254.48
2018-03-26T23:57:23.125Z,97246.77
2018-03-26T23:59:50.654Z,97241.95
